Time;durP1;ratioP1;P1;durP2;ratioP2;P2;SDS_P1;SDS_P2;PMS_P1;PMS_P2;Temp;Humidity;BMP_temperature;BMP_pressure;BME280_temperature;BME280_humidity;BME280_pressure;Samples;Min_cycle;Max_cycle;Signal;HPM_P1;HPM_P2
2024/01/31 00:01:37;;;;;;;3.47;2.00;;;4.00;99.90;;;;;;5025979;28;20207;-56
2024/01/31 00:04:03;;;;;;;6.07;2.10;;;4.00;99.90;;;;;;5042439;28;20677;-56
2024/01/31 00:06:29;;;;;;;8.27;2.50;;;4.00;99.90;;;;;;5008838;28;20184;-55
2024/01/31 00:08:56;;;;;;;4.90;2.03;;;3.80;99.90;;;;;;5033420;28;20200;-53
2024/01/31 00:11:25;;;;;;;4.40;2.33;;;3.80;99.90;;;;;;5048601;28;20551;-57
2024/01/31 00:13:51;;;;;;;4.17;1.90;;;3.80;99.90;;;;;;5034468;28;20175;-54
2024/01/31 00:16:17;;;;;;;3.57;2.07;;;3.80;99.90;;;;;;5013411;28;20549;-52
2024/01/31 00:18:43;;;;;;;4.00;1.73;;;3.70;99.90;;;;;;5030301;28;20210;-52
2024/01/31 00:21:08;;;;;;;5.17;1.87;;;3.60;99.90;;;;;;5043703;28;20183;-55
2024/01/31 00:23:34;;;;;;;5.77;2.20;;;3.60;99.90;;;;;;5031087;28;20184;-55
2024/01/31 00:25:59;;;;;;;4.60;2.07;;;3.70;99.90;;;;;;5048055;28;20287;-54
2024/01/31 00:28:25;;;;;;;2.67;1.70;;;3.70;99.90;;;;;;5043659;28;20659;-56
2024/01/31 00:30:51;;;;;;;9.80;3.20;;;3.70;99.90;;;;;;5037900;28;20212;-53
2024/01/31 00:33:17;;;;;;;4.57;2.50;;;3.70;99.90;;;;;;5025353;28;20191;-56
2024/01/31 00:35:42;;;;;;;4.50;2.20;;;3.80;99.90;;;;;;5045327;28;20182;-57
2024/01/31 00:38:08;;;;;;;6.50;3.10;;;3.80;99.90;;;;;;5048275;28;20693;-57
2024/01/31 00:40:34;;;;;;;7.10;2.97;;;3.90;99.90;;;;;;5019138;28;20189;-56
2024/01/31 00:42:59;;;;;;;6.30;2.80;;;4.00;99.90;;;;;;5044829;28;20213;-55
2024/01/31 00:45:25;;;;;;;6.73;2.73;;;4.10;99.90;;;;;;5051629;28;20300;-54
2024/01/31 00:47:50;;;;;;;6.60;2.80;;;4.20;99.90;;;;;;5037697;28;20319;-55
2024/01/31 00:50:16;;;;;;;12.13;3.03;;;4.30;99.90;;;;;;5032699;28;20718;-56
2024/01/31 00:52:42;;;;;;;6.63;3.07;;;4.30;99.90;;;;;;5017604;28;20179;-53
2024/01/31 00:55:08;;;;;;;7.87;3.50;;;4.30;99.90;;;;;;5043112;28;20667;-53
2024/01/31 00:57:33;;;;;;;6.93;3.37;;;4.50;99.90;;;;;;5041655;28;20199;-53
2024/01/31 01:00:00;;;;;;;7.67;3.73;;;4.50;99.90;;;;;;5036357;28;20234;-53
2024/01/31 01:02:26;;;;;;;10.03;4.90;;;4.60;99.90;;;;;;5035170;28;20179;-53
2024/01/31 01:04:52;;;;;;;12.77;4.80;;;4.70;99.90;;;;;;5034920;28;20711;-53
2024/01/31 01:07:18;;;;;;;15.93;5.63;;;4.90;99.90;;;;;;5037344;28;20269;-56
2024/01/31 01:09:43;;;;;;;12.80;5.30;;;5.00;99.90;;;;;;5023664;28;20282;-56
2024/01/31 01:12:09;;;;;;;9.13;5.10;;;5.10;99.90;;;;;;5051056;28;20211;-56
2024/01/31 01:14:34;;;;;;;11.10;5.67;;;5.20;99.90;;;;;;5051351;28;20245;-54
2024/01/31 01:17:00;;;;;;;12.90;6.10;;;5.20;99.90;;;;;;5025582;28;20223;-53
2024/01/31 01:19:26;;;;;;;14.47;6.40;;;5.40;99.90;;;;;;5035032;28;20223;-54
2024/01/31 01:21:51;;;;;;;11.70;6.23;;;5.40;99.90;;;;;;5027694;28;20605;-53
2024/01/31 01:24:17;;;;;;;12.10;6.50;;;5.50;99.90;;;;;;5033486;28;20201;-53
2024/01/31 01:26:42;;;;;;;12.43;6.33;;;5.50;99.90;;;;;;5030403;28;20549;-58
2024/01/31 01:29:08;;;;;;;12.47;6.07;;;5.60;99.90;;;;;;5035852;28;20212;-59
2024/01/31 01:31:34;;;;;;;15.87;5.93;;;5.60;99.90;;;;;;5032367;28;20195;-58
2024/01/31 01:33:59;;;;;;;11.67;5.43;;;5.80;99.90;;;;;;5031225;28;20247;-58
2024/01/31 01:36:25;;;;;;;15.50;6.33;;;5.80;99.90;;;;;;5046678;28;20207;-59
2024/01/31 01:38:51;;;;;;;10.87;5.43;;;5.90;99.90;;;;;;5014918;28;20603;-57
2024/01/31 01:41:17;;;;;;;11.90;6.30;;;5.90;99.90;;;;;;5038097;28;20266;-58
2024/01/31 01:43:43;;;;;;;9.87;5.23;;;5.90;99.90;;;;;;5036743;28;20195;-59
2024/01/31 01:46:15;;;;;;;13.80;6.17;;;5.90;99.90;;;;;;5047866;28;20179;-59
2024/01/31 01:48:45;;;;;;;11.17;5.40;;;5.90;99.90;;;;;;5033079;28;20562;-56
2024/01/31 01:51:15;;;;;;;11.60;5.93;;;6.00;99.90;;;;;;5048552;28;20242;-58
2024/01/31 01:53:41;;;;;;;12.47;5.93;;;6.10;99.90;;;;;;5034336;28;20638;-59
2024/01/31 01:56:11;;;;;;;14.07;6.23;;;6.10;99.90;;;;;;5033207;28;20242;-56
2024/01/31 01:58:37;;;;;;;15.23;6.37;;;6.10;99.90;;;;;;5040499;28;20578;-56
2024/01/31 02:01:03;;;;;;;12.77;6.27;;;6.10;99.90;;;;;;5036157;28;20715;-58
2024/01/31 02:03:29;;;;;;;12.20;6.37;;;6.10;99.90;;;;;;5042080;28;20270;-59
2024/01/31 02:05:59;;;;;;;11.53;6.10;;;6.20;99.90;;;;;;5018347;28;20223;-59
2024/01/31 02:08:29;;;;;;;13.77;6.43;;;6.20;99.90;;;;;;5017352;28;20241;-56
2024/01/31 02:10:55;;;;;;;12.60;6.20;;;6.20;99.90;;;;;;5026217;28;20690;-58
2024/01/31 02:13:22;;;;;;;15.67;6.77;;;6.30;99.90;;;;;;5043795;28;20699;-54
2024/01/31 02:15:57;;;;;;;15.47;7.20;;;6.30;99.90;;;;;;5016400;28;20188;-57
2024/01/31 02:18:25;;;;;;;12.20;6.50;;;6.20;99.90;;;;;;5049773;28;20195;-58
2024/01/31 02:20:51;;;;;;;11.83;6.33;;;6.20;99.90;;;;;;5041823;28;20532;-59
2024/01/31 02:23:16;;;;;;;11.43;6.20;;;6.30;99.90;;;;;;5049815;28;20233;-59
2024/01/31 02:25:42;;;;;;;12.63;6.10;;;6.30;99.90;;;;;;5033197;28;20560;-58
2024/01/31 02:28:08;;;;;;;12.53;6.57;;;6.30;99.90;;;;;;5040629;28;20215;-58
2024/01/31 02:30:34;;;;;;;13.73;6.37;;;6.30;99.90;;;;;;5038130;28;20203;-60
2024/01/31 02:32:59;;;;;;;13.47;6.43;;;6.30;99.90;;;;;;5030089;28;20184;-57
2024/01/31 02:35:25;;;;;;;13.27;5.83;;;6.20;99.90;;;;;;5022092;28;20192;-60
2024/01/31 02:37:51;;;;;;;11.57;5.40;;;6.30;99.90;;;;;;5037901;28;20670;-59
2024/01/31 02:40:16;;;;;;;15.07;6.50;;;6.30;99.90;;;;;;5038411;28;20233;-58
2024/01/31 02:42:43;;;;;;;12.10;6.07;;;6.20;99.90;;;;;;5038310;28;20762;-60
2024/01/31 02:45:09;;;;;;;14.13;6.97;;;6.20;99.90;;;;;;5030022;28;20559;-58
2024/01/31 02:47:35;;;;;;;11.47;6.23;;;6.30;99.90;;;;;;5037812;28;20176;-59
2024/01/31 02:50:01;;;;;;;13.10;6.20;;;6.30;99.90;;;;;;5038113;28;20218;-59
2024/01/31 02:52:26;;;;;;;13.40;6.83;;;6.20;99.90;;;;;;5017397;28;20179;-56
2024/01/31 02:54:52;;;;;;;17.83;6.77;;;6.20;99.90;;;;;;5041827;28;20639;-58
2024/01/31 02:57:19;;;;;;;15.20;6.60;;;6.10;99.90;;;;;;5024709;28;20682;-58
2024/01/31 02:59:44;;;;;;;13.40;6.90;;;6.10;99.90;;;;;;5050063;28;20280;-60
2024/01/31 03:02:10;;;;;;;14.30;7.03;;;6.20;99.90;;;;;;5041498;28;20674;-60
2024/01/31 03:04:35;;;;;;;13.90;6.50;;;6.20;99.90;;;;;;5049999;28;20185;-58
2024/01/31 03:07:01;;;;;;;13.67;7.30;;;6.20;99.90;;;;;;5032785;28;20190;-59
2024/01/31 03:09:27;;;;;;;20.43;8.43;;;6.30;99.90;;;;;;5034583;28;20212;-58
2024/01/31 03:11:53;;;;;;;15.63;7.60;;;6.30;99.90;;;;;;5040941;28;20175;-58
2024/01/31 03:14:19;;;;;;;18.70;8.50;;;6.10;99.90;;;;;;5030765;28;20726;-59
2024/01/31 03:16:45;;;;;;;20.17;8.30;;;6.10;99.90;;;;;;5037434;28;20179;-60
2024/01/31 03:19:10;;;;;;;16.70;8.33;;;6.10;99.90;;;;;;5039377;28;20639;-60
2024/01/31 03:21:36;;;;;;;16.10;7.67;;;6.10;99.90;;;;;;5041522;28;20551;-60
2024/01/31 03:24:02;;;;;;;20.50;8.73;;;6.10;99.90;;;;;;5041283;28;20225;-58
2024/01/31 03:26:28;;;;;;;18.13;8.60;;;6.10;99.90;;;;;;5017710;28;20204;-58
2024/01/31 03:28:54;;;;;;;16.90;8.13;;;6.20;99.90;;;;;;5032351;28;20741;-60
2024/01/31 03:31:20;;;;;;;17.27;8.00;;;6.20;99.90;;;;;;5024738;28;20569;-60
2024/01/31 03:33:45;;;;;;;19.10;8.40;;;6.10;99.90;;;;;;5029050;28;20176;-60
2024/01/31 03:36:12;;;;;;;17.43;7.57;;;6.10;99.90;;;;;;5028015;28;20218;-59
2024/01/31 03:38:38;;;;;;;20.93;8.17;;;6.20;99.90;;;;;;5023243;28;20209;-59
2024/01/31 03:41:07;;;;;;;18.97;8.63;;;6.20;99.90;;;;;;5043055;28;20686;-60
2024/01/31 03:43:33;;;;;;;18.67;8.37;;;6.10;99.90;;;;;;5049215;28;20321;-59
2024/01/31 03:46:00;;;;;;;16.97;8.03;;;6.10;99.90;;;;;;5040737;28;20180;-60
2024/01/31 03:48:29;;;;;;;18.33;7.40;;;6.10;99.90;;;;;;5032265;28;20190;-59
2024/01/31 03:50:54;;;;;;;18.93;7.30;;;6.00;99.90;;;;;;5052890;28;20561;-58
2024/01/31 03:53:20;;;;;;;16.03;7.23;;;6.00;99.90;;;;;;5052764;28;20193;-59
2024/01/31 03:55:46;;;;;;;15.20;7.17;;;6.00;99.90;;;;;;5040261;28;20211;-60
2024/01/31 03:58:11;;;;;;;16.20;7.27;;;5.90;99.90;;;;;;5030701;28;20222;-57
2024/01/31 04:00:37;;;;;;;14.53;6.87;;;6.00;99.90;;;;;;5029613;28;20191;-60
2024/01/31 04:03:02;;;;;;;18.97;6.70;;;5.90;99.90;;;;;;5027769;28;20203;-59
2024/01/31 04:05:28;;;;;;;15.53;6.50;;;5.90;99.90;;;;;;5043949;28;20204;-58
2024/01/31 04:07:54;;;;;;;14.10;6.77;;;6.00;99.90;;;;;;5038083;28;20197;-60
2024/01/31 04:10:20;;;;;;;15.97;7.00;;;6.10;99.90;;;;;;5028937;28;20200;-59
2024/01/31 04:12:46;;;;;;;12.97;6.00;;;6.10;99.90;;;;;;5029325;28;20184;-60
2024/01/31 04:15:11;;;;;;;14.20;6.73;;;6.10;99.90;;;;;;5021934;28;20199;-59
2024/01/31 04:17:37;;;;;;;18.53;6.80;;;6.10;99.90;;;;;;5010923;28;20270;-57
2024/01/31 04:20:03;;;;;;;14.57;7.07;;;6.10;99.90;;;;;;5043995;28;20218;-57
2024/01/31 04:22:28;;;;;;;13.47;6.50;;;6.00;99.90;;;;;;5048453;28;20176;-58
2024/01/31 04:24:54;;;;;;;15.20;6.70;;;6.10;99.90;;;;;;5031553;28;20195;-60
2024/01/31 04:27:19;;;;;;;20.73;7.23;;;6.10;99.90;;;;;;5049102;28;20190;-60
2024/01/31 04:29:45;;;;;;;13.73;7.03;;;6.10;99.90;;;;;;5018122;28;20586;-60
2024/01/31 04:32:11;;;;;;;14.73;7.07;;;6.00;99.90;;;;;;5028653;28;20184;-58
2024/01/31 04:34:39;;;;;;;15.90;6.77;;;6.00;99.90;;;;;;5038237;28;20183;-60
2024/01/31 04:37:05;;;;;;;12.93;6.43;;;6.10;99.90;;;;;;5034759;28;20780;-58
2024/01/31 04:39:31;;;;;;;13.30;6.00;;;6.10;99.90;;;;;;5051957;28;20199;-56
2024/01/31 04:41:57;;;;;;;11.63;4.97;;;6.10;99.90;;;;;;5044249;28;20250;-60
2024/01/31 04:44:22;;;;;;;10.00;5.03;;;6.00;99.90;;;;;;5034727;28;20182;-58
2024/01/31 04:46:49;;;;;;;11.50;5.47;;;5.90;99.90;;;;;;5022446;28;20544;-59
2024/01/31 04:49:15;;;;;;;9.20;4.47;;;6.00;99.90;;;;;;5048289;28;20206;-58
2024/01/31 04:51:41;;;;;;;10.23;4.73;;;5.90;99.90;;;;;;5046435;28;20742;-59
2024/01/31 04:54:07;;;;;;;10.30;5.00;;;6.00;99.90;;;;;;5031157;28;20530;-57
2024/01/31 04:56:34;;;;;;;8.73;4.70;;;6.00;99.90;;;;;;5036005;28;20235;-60
2024/01/31 04:58:59;;;;;;;10.40;4.67;;;6.00;99.90;;;;;;5035110;28;20208;-59
2024/01/31 05:01:25;;;;;;;10.03;4.43;;;6.10;99.90;;;;;;5014853;28;20242;-60
2024/01/31 05:03:50;;;;;;;10.67;4.33;;;6.00;99.90;;;;;;5030201;28;20266;-59
2024/01/31 05:06:16;;;;;;;10.77;5.77;;;6.00;99.90;;;;;;5034217;28;20270;-60
2024/01/31 05:08:41;;;;;;;12.47;5.13;;;6.00;99.90;;;;;;5045972;28;20211;-59
2024/01/31 05:11:07;;;;;;;8.97;4.33;;;6.00;99.90;;;;;;5039963;28;20219;-60
2024/01/31 05:13:33;;;;;;;9.13;4.27;;;5.90;99.90;;;;;;5043950;28;20171;-57
2024/01/31 05:15:58;;;;;;;9.67;4.60;;;5.80;99.90;;;;;;5027280;28;20208;-59
2024/01/31 05:18:24;;;;;;;8.87;4.57;;;5.80;99.90;;;;;;5033674;28;20206;-58
2024/01/31 05:20:49;;;;;;;10.70;4.77;;;5.90;99.90;;;;;;5044689;28;20195;-59
2024/01/31 05:23:15;;;;;;;11.63;5.27;;;5.90;99.90;;;;;;5039477;28;20557;-59
2024/01/31 05:25:40;;;;;;;13.10;5.10;;;6.00;99.90;;;;;;5035798;28;20966;-59
2024/01/31 05:28:06;;;;;;;9.77;4.97;;;5.90;99.90;;;;;;5034012;28;20210;-60
2024/01/31 05:30:31;;;;;;;10.40;4.23;;;5.80;99.90;;;;;;5035669;28;20535;-59
2024/01/31 05:32:57;;;;;;;13.07;6.50;;;5.80;99.90;;;;;;5034713;28;20220;-59
2024/01/31 05:35:22;;;;;;;26.50;12.03;;;5.80;99.90;;;;;;5050987;28;20187;-56
2024/01/31 05:37:48;;;;;;;20.33;8.40;;;5.80;99.90;;;;;;5050937;28;20180;-56
2024/01/31 05:40:16;;;;;;;14.07;6.27;;;5.80;99.90;;;;;;5051074;28;20191;-58
2024/01/31 05:42:42;;;;;;;11.23;5.63;;;5.80;99.90;;;;;;5043072;28;20195;-58
2024/01/31 05:45:08;;;;;;;11.53;5.47;;;5.80;99.90;;;;;;5042075;28;20559;-56
2024/01/31 05:47:35;;;;;;;10.93;5.00;;;5.80;99.90;;;;;;5035313;28;20547;-57
2024/01/31 05:50:01;;;;;;;11.27;5.17;;;5.70;99.90;;;;;;5036097;28;20273;-59
2024/01/31 05:52:26;;;;;;;12.60;5.50;;;5.70;99.90;;;;;;5036280;28;20589;-58
2024/01/31 05:54:52;;;;;;;10.80;5.90;;;5.70;99.90;;;;;;5019714;28;20698;-59
2024/01/31 05:57:17;;;;;;;11.33;5.47;;;5.70;99.90;;;;;;5031501;28;20191;-55
2024/01/31 05:59:43;;;;;;;13.60;6.40;;;5.70;99.90;;;;;;5034689;28;20281;-58
2024/01/31 06:02:09;;;;;;;12.17;5.60;;;5.70;99.90;;;;;;5025353;28;20187;-58
2024/01/31 06:04:34;;;;;;;11.03;5.40;;;5.70;99.90;;;;;;5019542;28;20263;-59
2024/01/31 06:07:00;;;;;;;10.47;5.37;;;5.70;99.90;;;;;;5026275;28;20236;-60
2024/01/31 06:09:26;;;;;;;14.43;6.13;;;5.70;99.90;;;;;;5034603;28;20248;-60
2024/01/31 06:11:52;;;;;;;11.97;5.80;;;5.70;99.90;;;;;;5016718;28;20187;-59
2024/01/31 06:14:17;;;;;;;10.67;5.10;;;5.70;99.90;;;;;;5048759;28;20194;-58
2024/01/31 06:16:43;;;;;;;15.50;5.70;;;5.60;99.90;;;;;;5029786;28;20184;-57
2024/01/31 06:19:08;;;;;;;10.20;5.17;;;5.70;99.90;;;;;;5013433;28;20208;-56
2024/01/31 06:21:34;;;;;;;14.60;4.73;;;5.70;99.90;;;;;;5052023;28;20557;-58
2024/01/31 06:24:00;;;;;;;10.10;5.00;;;5.70;99.90;;;;;;5035894;28;20214;-59
2024/01/31 06:26:28;;;;;;;11.10;4.77;;;5.70;99.90;;;;;;5021716;28;20180;-58
2024/01/31 06:28:54;;;;;;;10.17;5.27;;;5.60;99.90;;;;;;5038857;28;20207;-59
2024/01/31 06:31:28;;;;;;;11.13;5.33;;;5.60;99.90;;;;;;5044596;28;20694;-59
2024/01/31 06:33:54;;;;;;;8.40;4.27;;;5.50;99.90;;;;;;5035035;28;20553;-59
2024/01/31 06:36:20;;;;;;;9.90;4.73;;;5.60;99.90;;;;;;5017864;28;20188;-60
2024/01/31 06:38:46;;;;;;;11.10;4.77;;;5.60;99.90;;;;;;5038561;28;20521;-54
2024/01/31 06:41:16;;;;;;;11.43;5.00;;;5.60;99.90;;;;;;5021283;28;20593;-56
2024/01/31 06:43:41;;;;;;;11.10;4.93;;;5.70;99.90;;;;;;5036582;28;20361;-56
2024/01/31 06:46:07;;;;;;;10.40;5.37;;;5.70;99.90;;;;;;5040098;28;21108;-60
2024/01/31 06:48:33;;;;;;;10.80;5.10;;;5.70;99.90;;;;;;5031587;28;20274;-56
2024/01/31 06:50:59;;;;;;;14.40;6.60;;;5.70;99.90;;;;;;5025537;28;20302;-54
2024/01/31 06:53:24;;;;;;;12.80;5.70;;;5.70;99.90;;;;;;5035013;28;20196;-55
2024/01/31 06:55:51;;;;;;;11.57;5.87;;;5.60;99.90;;;;;;5037872;28;20655;-54
2024/01/31 06:58:16;;;;;;;17.03;7.33;;;5.50;99.90;;;;;;5049514;28;20302;-56
2024/01/31 07:00:42;;;;;;;18.37;7.47;;;5.50;99.90;;;;;;5039294;28;20660;-54
2024/01/31 07:03:08;;;;;;;10.73;5.53;;;5.50;99.90;;;;;;5043471;28;20203;-56
2024/01/31 07:05:33;;;;;;;16.07;7.03;;;5.50;99.90;;;;;;5040879;28;20202;-55
2024/01/31 07:07:59;;;;;;;13.47;5.63;;;5.50;99.90;;;;;;5024431;28;20198;-54
2024/01/31 07:10:24;;;;;;;12.73;5.93;;;5.50;99.90;;;;;;5008775;28;20284;-54
2024/01/31 07:12:52;;;;;;;11.17;5.53;;;5.50;99.90;;;;;;5009890;28;20252;-51
2024/01/31 07:15:21;;;;;;;13.03;6.20;;;5.40;99.90;;;;;;5026059;28;20197;-52
2024/01/31 07:17:47;;;;;;;13.40;5.10;;;5.50;99.90;;;;;;5030950;28;20180;-52
2024/01/31 07:20:12;;;;;;;14.63;5.77;;;5.50;99.90;;;;;;5030057;28;20685;-53
2024/01/31 07:22:38;;;;;;;13.63;5.83;;;5.50;99.90;;;;;;5039588;28;20200;-55
2024/01/31 07:25:04;;;;;;;18.83;7.10;;;5.50;99.90;;;;;;5020138;28;20599;-58
2024/01/31 07:27:30;;;;;;;13.57;6.50;;;5.50;99.90;;;;;;5044460;28;20183;-57
2024/01/31 07:29:55;;;;;;;13.03;5.90;;;5.50;99.90;;;;;;5044743;28;20222;-54
2024/01/31 07:32:21;;;;;;;12.47;5.53;;;5.40;99.90;;;;;;5044882;28;20343;-56
2024/01/31 07:34:46;;;;;;;11.77;5.20;;;5.50;99.90;;;;;;5033398;28;20656;-56
2024/01/31 07:37:12;;;;;;;13.10;5.10;;;5.50;99.90;;;;;;5029126;28;20578;-56
2024/01/31 07:39:37;;;;;;;13.60;5.63;;;5.50;99.90;;;;;;5003773;28;20296;-51
2024/01/31 07:42:04;;;;;;;9.63;4.67;;;5.60;99.90;;;;;;5037374;28;20583;-55
2024/01/31 07:44:29;;;;;;;13.53;5.40;;;5.50;99.90;;;;;;5035572;28;20589;-54
2024/01/31 07:46:55;;;;;;;11.80;5.33;;;5.50;99.90;;;;;;5043275;28;20562;-54
2024/01/31 07:49:20;;;;;;;13.63;5.40;;;5.50;99.90;;;;;;5027328;28;20590;-58
2024/01/31 07:51:46;;;;;;;14.47;6.10;;;5.50;99.90;;;;;;5037640;28;20187;-59
2024/01/31 07:54:12;;;;;;;14.87;6.80;;;5.60;99.90;;;;;;5038022;28;20195;-61
2024/01/31 07:56:38;;;;;;;24.17;11.20;;;5.60;99.90;;;;;;5037005;28;20202;-59
2024/01/31 07:59:04;;;;;;;46.97;20.73;;;5.60;99.90;;;;;;5043804;28;20199;-61
2024/01/31 08:01:29;;;;;;;30.53;13.67;;;5.60;99.90;;;;;;5026786;28;20281;-60
2024/01/31 08:03:55;;;;;;;43.73;19.20;;;5.60;99.90;;;;;;5028461;28;20184;-60
2024/01/31 08:06:21;;;;;;;31.97;15.07;;;5.60;99.90;;;;;;5041563;28;20183;-60
2024/01/31 08:08:46;;;;;;;26.80;13.13;;;5.60;99.90;;;;;;5037390;28;20251;-60
2024/01/31 08:11:12;;;;;;;31.10;14.87;;;5.70;99.90;;;;;;5030430;28;20212;-60
2024/01/31 08:13:40;;;;;;;28.13;13.23;;;5.70;99.90;;;;;;5020909;28;20187;-59
2024/01/31 08:16:06;;;;;;;26.40;12.30;;;5.70;99.90;;;;;;5017990;28;20200;-60
2024/01/31 08:18:32;;;;;;;24.57;11.97;;;5.80;99.90;;;;;;5044022;28;20201;-60
2024/01/31 08:20:57;;;;;;;24.10;11.20;;;5.80;99.90;;;;;;5019836;28;20197;-60
2024/01/31 08:23:23;;;;;;;24.20;12.70;;;5.90;99.90;;;;;;5032999;28;20259;-61
2024/01/31 08:25:49;;;;;;;31.07;12.10;;;5.90;99.90;;;;;;5038711;28;20192;-60
2024/01/31 08:28:15;;;;;;;24.50;12.13;;;5.90;99.90;;;;;;5036148;28;20222;-58
2024/01/31 08:30:40;;;;;;;25.13;11.80;;;6.00;99.90;;;;;;5027958;28;20239;-60
2024/01/31 08:33:06;;;;;;;22.30;11.10;;;6.00;99.90;;;;;;5036458;28;20179;-59
2024/01/31 08:35:32;;;;;;;18.57;9.03;;;6.00;99.90;;;;;;5037741;28;20188;-60
2024/01/31 08:37:57;;;;;;;17.03;8.90;;;6.10;99.90;;;;;;5032023;28;20193;-61
2024/01/31 08:40:23;;;;;;;21.27;11.33;;;6.10;99.90;;;;;;5027505;28;20544;-60
2024/01/31 08:42:48;;;;;;;25.40;11.70;;;6.10;99.90;;;;;;5038721;28;20198;-60
2024/01/31 08:45:14;;;;;;;21.00;10.20;;;6.10;99.90;;;;;;5049197;28;20305;-58
2024/01/31 08:47:40;;;;;;;22.93;10.00;;;6.10;99.90;;;;;;5030648;28;20655;-59
2024/01/31 08:50:05;;;;;;;45.63;19.30;;;6.10;99.90;;;;;;5038934;28;20264;-59
2024/01/31 08:52:32;;;;;;;62.20;24.43;;;6.10;99.90;;;;;;5034587;28;20578;-60
2024/01/31 08:54:59;;;;;;;71.13;27.87;;;6.10;99.90;;;;;;5035721;28;20187;-60
2024/01/31 08:57:24;;;;;;;66.67;26.30;;;6.20;99.90;;;;;;5041272;28;20179;-60
2024/01/31 08:59:50;;;;;;;52.83;21.40;;;6.20;99.90;;;;;;5042312;28;20268;-60
2024/01/31 09:02:16;;;;;;;48.27;20.20;;;6.20;99.90;;;;;;5034060;28;20195;-60
2024/01/31 09:04:41;;;;;;;58.40;21.60;;;6.20;99.90;;;;;;5042810;28;20194;-59
2024/01/31 09:07:07;;;;;;;46.17;19.07;;;6.20;99.90;;;;;;5041677;28;20183;-60
2024/01/31 09:09:37;;;;;;;39.47;16.87;;;6.20;99.90;;;;;;5042734;28;20195;-59
2024/01/31 09:12:06;;;;;;;30.60;14.07;;;6.20;99.90;;;;;;5042600;28;20575;-60
2024/01/31 09:14:35;;;;;;;32.97;13.67;;;6.20;99.90;;;;;;5030970;28;20686;-61
2024/01/31 09:17:00;;;;;;;35.00;14.90;;;6.30;99.90;;;;;;5029748;28;20221;-60
2024/01/31 09:19:26;;;;;;;41.33;15.27;;;6.30;99.90;;;;;;5038472;28;20200;-60
2024/01/31 09:21:52;;;;;;;35.93;15.27;;;6.30;99.90;;;;;;5028024;28;20179;-59
2024/01/31 09:24:17;;;;;;;30.93;14.10;;;6.30;99.90;;;;;;5030231;28;20191;-59
2024/01/31 09:26:43;;;;;;;36.57;15.50;;;6.30;99.90;;;;;;5037376;28;20186;-61
2024/01/31 09:29:09;;;;;;;30.93;14.30;;;6.30;99.90;;;;;;5020807;28;20242;-60
2024/01/31 09:31:35;;;;;;;40.83;20.40;;;6.30;99.90;;;;;;5035708;28;20219;-61
2024/01/31 09:34:00;;;;;;;44.13;18.70;;;6.40;99.90;;;;;;5025619;28;20218;-60
2024/01/31 09:36:26;;;;;;;32.60;15.93;;;6.40;99.90;;;;;;5023320;28;20586;-60
2024/01/31 09:38:52;;;;;;;32.00;15.47;;;6.50;99.90;;;;;;5037485;28;20228;-60
2024/01/31 09:41:18;;;;;;;31.97;15.03;;;6.50;99.90;;;;;;5028360;28;20223;-61
2024/01/31 09:43:44;;;;;;;32.60;15.27;;;6.50;99.90;;;;;;5038342;28;20992;-61
2024/01/31 09:46:11;;;;;;;31.73;14.47;;;6.60;99.90;;;;;;5021572;28;20274;-59
2024/01/31 09:48:38;;;;;;;33.00;16.00;;;6.60;99.90;;;;;;5042019;28;20231;-60
2024/01/31 09:51:05;;;;;;;33.37;15.17;;;6.60;99.90;;;;;;5041999;28;20958;-59
2024/01/31 09:53:36;;;;;;;33.53;15.67;;;6.60;99.90;;;;;;5018159;28;20212;-61
2024/01/31 09:56:02;;;;;;;27.83;13.57;;;6.70;99.90;;;;;;5025790;28;20192;-60
2024/01/31 09:58:28;;;;;;;29.50;13.37;;;6.70;99.90;;;;;;5040341;28;20227;-61
2024/01/31 10:00:54;;;;;;;27.80;12.70;;;6.80;99.90;;;;;;5042883;28;20226;-60
2024/01/31 10:03:20;;;;;;;28.10;13.50;;;6.80;99.90;;;;;;5045926;28;20191;-60
2024/01/31 10:05:45;;;;;;;25.40;11.93;;;6.70;99.90;;;;;;5031454;28;20199;-60
2024/01/31 10:08:11;;;;;;;24.33;11.83;;;6.60;99.90;;;;;;5025629;28;20215;-61
2024/01/31 10:10:37;;;;;;;23.60;10.83;;;6.70;99.90;;;;;;5031734;28;20581;-61
2024/01/31 10:13:06;;;;;;;23.87;10.50;;;6.80;99.90;;;;;;5041239;28;20655;-60
2024/01/31 10:15:34;;;;;;;20.40;10.20;;;6.80;99.90;;;;;;5048404;28;20179;-60
2024/01/31 10:18:00;;;;;;;27.07;15.33;;;6.90;99.90;;;;;;5034440;28;20620;-61
2024/01/31 10:20:26;;;;;;;16.40;9.47;;;6.80;99.90;;;;;;5039142;28;20729;-60
2024/01/31 10:22:51;;;;;;;12.47;7.27;;;6.90;99.90;;;;;;5020631;28;20702;-60
2024/01/31 10:25:18;;;;;;;15.47;7.00;;;6.80;99.90;;;;;;5027295;28;20196;-60
2024/01/31 10:27:45;;;;;;;12.20;6.87;;;6.70;99.90;;;;;;5042088;28;20647;-60
2024/01/31 10:30:12;;;;;;;12.50;6.87;;;6.70;99.90;;;;;;5041136;28;20585;-59
2024/01/31 10:32:40;;;;;;;16.80;9.50;;;6.80;99.90;;;;;;5040473;28;20180;-59
2024/01/31 10:35:07;;;;;;;17.50;9.70;;;6.80;99.90;;;;;;5017573;28;20684;-58
2024/01/31 10:37:34;;;;;;;16.43;9.73;;;6.90;99.90;;;;;;5028524;28;20838;-58
2024/01/31 10:40:01;;;;;;;13.33;7.07;;;6.80;99.90;;;;;;5044464;28;20241;-58
2024/01/31 10:42:26;;;;;;;16.50;6.57;;;6.90;99.90;;;;;;5032531;28;20218;-58
2024/01/31 10:44:53;;;;;;;14.17;5.87;;;6.90;99.90;;;;;;5034441;28;20277;-57
2024/01/31 10:47:19;;;;;;;11.37;6.43;;;6.90;99.90;;;;;;5038032;28;20278;-56
2024/01/31 10:49:44;;;;;;;11.53;6.40;;;7.00;99.90;;;;;;5027163;28;20754;-58
2024/01/31 10:52:16;;;;;;;11.13;6.07;;;7.00;99.90;;;;;;5037419;28;20240;-59
2024/01/31 10:54:47;;;;;;;13.37;6.77;;;7.10;99.90;;;;;;5022786;28;20237;-58
2024/01/31 10:57:13;;;;;;;9.73;5.50;;;7.10;99.90;;;;;;5025375;28;20225;-58
2024/01/31 10:59:39;;;;;;;10.10;5.30;;;7.20;99.90;;;;;;5016611;28;20207;-59
2024/01/31 11:02:13;;;;;;;11.73;6.43;;;7.30;99.90;;;;;;5033472;28;20187;-58
2024/01/31 11:04:39;;;;;;;12.50;6.60;;;7.40;99.90;;;;;;5013331;28;20647;-59
2024/01/31 11:07:05;;;;;;;13.13;8.00;;;7.40;99.90;;;;;;5028271;28;20189;-58
2024/01/31 11:09:31;;;;;;;11.57;6.10;;;7.60;99.90;;;;;;5039662;28;20209;-59
2024/01/31 11:12:11;;;;;;;12.90;7.30;;;7.60;99.90;;;;;;5017558;28;20215;-59
2024/01/31 11:14:40;;;;;;;11.80;6.93;;;7.60;99.90;;;;;;5036092;28;20565;-58
2024/01/31 11:17:18;;;;;;;6.10;3.93;;;7.70;99.90;;;;;;5028339;28;20199;-58
2024/01/31 11:19:58;;;;;;;7.40;4.30;;;7.50;99.90;;;;;;5030113;28;20211;-58
2024/01/31 11:22:24;;;;;;;6.60;3.77;;;7.40;99.90;;;;;;5042497;28;20195;-58
2024/01/31 11:24:51;;;;;;;7.03;4.30;;;7.40;99.90;;;;;;5020297;28;20924;-59
2024/01/31 11:27:18;;;;;;;7.63;4.77;;;7.40;99.90;;;;;;5036778;28;20256;-58
2024/01/31 11:29:50;;;;;;;10.03;5.27;;;7.50;99.90;;;;;;5016999;28;20240;-59
2024/01/31 11:32:23;;;;;;;9.27;5.00;;;7.60;99.90;;;;;;5043778;28;20191;-57
2024/01/31 11:34:59;;;;;;;8.30;5.00;;;7.60;99.90;;;;;;5042640;28;20183;-60
2024/01/31 11:37:25;;;;;;;6.47;3.63;;;7.50;99.90;;;;;;5009371;28;20195;-60
2024/01/31 11:39:50;;;;;;;7.37;4.57;;;7.40;99.90;;;;;;5028501;28;20573;-58
2024/01/31 11:42:16;;;;;;;10.70;6.40;;;7.60;99.90;;;;;;5038757;28;20302;-59
2024/01/31 11:44:42;;;;;;;9.00;5.70;;;7.50;99.90;;;;;;5033041;28;20268;-59
2024/01/31 11:47:08;;;;;;;6.97;4.33;;;7.60;99.90;;;;;;5023117;28;20192;-60
2024/01/31 11:49:33;;;;;;;5.20;3.10;;;7.50;99.90;;;;;;5016627;28;20219;-60
2024/01/31 11:51:59;;;;;;;5.47;3.40;;;7.50;99.90;;;;;;5023800;28;20265;-59
2024/01/31 11:54:24;;;;;;;4.13;2.67;;;7.50;99.90;;;;;;5022499;28;20597;-59
2024/01/31 11:56:51;;;;;;;5.37;3.30;;;7.40;99.90;;;;;;5041828;28;20176;-60
2024/01/31 11:59:16;;;;;;;5.60;3.10;;;7.40;99.90;;;;;;5003505;28;20274;-60
2024/01/31 12:01:42;;;;;;;5.53;3.00;;;7.40;99.90;;;;;;5043448;28;20188;-60
2024/01/31 12:04:08;;;;;;;5.60;3.10;;;7.50;99.90;;;;;;5036333;28;20206;-59
2024/01/31 12:06:33;;;;;;;6.97;3.20;;;7.60;99.90;;;;;;5039559;28;20557;-60
2024/01/31 12:08:59;;;;;;;5.30;2.63;;;7.70;99.90;;;;;;5034415;28;20606;-60
2024/01/31 12:11:25;;;;;;;5.10;2.90;;;7.60;99.90;;;;;;5023568;28;20308;-60
2024/01/31 12:13:50;;;;;;;4.17;2.60;;;7.60;99.90;;;;;;5044041;28;20187;-59
2024/01/31 12:16:16;;;;;;;5.60;2.77;;;7.60;99.90;;;;;;5032372;28;20184;-59
2024/01/31 12:18:42;;;;;;;6.37;3.47;;;7.50;99.90;;;;;;5037909;28;20203;-59
2024/01/31 12:21:11;;;;;;;7.70;3.73;;;7.50;99.90;;;;;;5019051;28;20203;-56
2024/01/31 12:23:37;;;;;;;6.57;3.70;;;7.50;99.90;;;;;;5019631;28;20210;-56
2024/01/31 12:26:02;;;;;;;8.00;3.47;;;7.40;99.90;;;;;;5027978;28;20215;-59
2024/01/31 12:28:28;;;;;;;6.23;3.23;;;7.40;99.90;;;;;;5050179;28;20306;-54
2024/01/31 12:30:54;;;;;;;8.20;3.77;;;7.40;99.90;;;;;;5036699;28;20270;-60
2024/01/31 12:33:20;;;;;;;6.20;3.37;;;7.40;99.90;;;;;;5033250;28;20188;-54
2024/01/31 12:35:46;;;;;;;6.43;4.03;;;7.40;99.90;;;;;;5045757;28;20226;-55
2024/01/31 12:38:15;;;;;;;6.83;3.57;;;7.40;99.90;;;;;;5004983;28;20235;-55
2024/01/31 12:40:41;;;;;;;5.20;3.37;;;7.40;99.90;;;;;;5035755;28;20270;-56
2024/01/31 12:43:06;;;;;;;6.70;3.37;;;7.50;99.90;;;;;;5043212;28;20279;-56